York, PA (17404)

13:15 EST le 08 décembre 2016 (GMT -0500)
Brandywine Woods-Cousler Park | | Change Station

Alt. 528 ft 40.00 °N, 76.76 °W | Updated 25 seconds ago

Partiellement nuageux
Partiellement nuageux
42.6 ° F
Paraît 38 ° F
N
8.3
Vent Variable Vent de ONO

Aujourd'hui
Haut(e) -- | Bas -- ° F
--% Risque de précip.
Hier
Haut(e) -- | Bas -- ° F
Precip. -- pouce
Pression 29.96 pouce
Visibilité 10.0 Miles terrestres
Nuages Ciel dégagé
Refroidissement éolien 38 ° F
Point de rosée 36 ° F
Humidité 78%
Précipitations 0.00 pouce
Profondeur de la couche neigeuse Non disponible.
7:16 AM 4:41 PM
Lune gibbeuse croissante, 65% visible
METAR KTHV 081753Z AUTO 28014G26KT 10SM CLR 06/M07 A2994 RMK AO2 PK WND 29026/1744 SLP146 T00611072 10067 20000 58023
Pression 29.96 pouce
Visibilité 10.0 Miles terrestres
Nuages Ciel dégagé
Refroidissement éolien 38 ° F
Point de rosée 36 ° F
Humidité 78%
Précipitations 0.00 pouce
Profondeur de la couche neigeuse Non disponible.
7:16 AM 4:41 PM
Lune gibbeuse croissante, 65% visible
METAR KTHV 081753Z AUTO 28014G26KT 10SM CLR 06/M07 A2994 RMK AO2 PK WND 29026/1744 SLP146 T00611072 10067 20000 58023

10-Day Weather Forecast

Almanac

Astronomie

Dec. 08, 2016 Lever Coucher
Temps réel
Crépuscule civil
Crépuscule nautique
Crépuscule astronomique
Lune
Durée de lumière visible
Longueur du jour
Tomorrow will be .
, % of the Moon is Illuminated

Extrêmes aujourd'hui

State Highs State Lows

Community

WunderPhotos

Upload Photos

1,956,277 Photos téléchargées !

WunderBlog® & News

Nearby

Qualité de l'air

  Qualité de l'air Indice de la qualité de l'air Polluant
Not available.

Épaisseur de neige

Station Depth Altitude

Activité sismique

Ville Distance Mag. Time & Date
Minimum magnitude displayed is 2.5.

Températures des eaux côtières

Lieu Température

Stations

Stations météo à proximité

Emplacement de la station Température Refroidissement éolien Point de rosée Humidité Vent Precip. Alt. Mise à jour Type
                   

Watches & Warnings

There are currently no watches in effect.